Time;durP1;ratioP1;P1;durP2;ratioP2;P2;SDS_P1;SDS_P2;PMS_P1;PMS_P2;Temp;Humidity;BMP_temperature;BMP_pressure;BME280_temperature;BME280_humidity;BME280_pressure;Samples;Min_cycle;Max_cycle;Signal;HPM_P1;HPM_P2
2022/11/05 00:09:29;;;;;;;;;;;;;;;7.71;89.33;96572.44;30001;983;1872;-71
2022/11/05 00:10:02;;;;;;;;;;;;;;;7.70;89.51;96568.94;30001;983;1872;-72
2022/11/05 00:10:35;;;;;;;;;;;;;;;7.72;89.60;96574.06;30001;983;1885;-71
2022/11/05 00:11:06;;;;;;;;;;;;;;;7.73;89.03;96573.78;30001;983;1881;-72
2022/11/05 00:16:45;;;;;;;;;;;;;;;7.66;90.17;96572.47;30001;983;1885;-72
2022/11/05 00:17:16;;;;;;;;;;;;;;;7.63;90.29;96567.62;30001;983;1881;-72
2022/11/05 00:17:46;;;;;;;;;;;;;;;7.64;90.51;96569.25;30001;983;1885;-71
2022/11/05 00:18:18;;;;;;;;;;;;;;;7.62;90.25;96571.47;30001;983;1881;-70
2022/11/05 00:19:05;;;;;;;;;;;;;;;7.62;90.65;96574.16;30001;983;1885;-71
2022/11/05 00:19:36;;;;;;;;;;;;;;;7.60;90.92;96570.94;30001;982;1881;-71
2022/11/05 00:20:09;;;;;;;;;;;;;;;7.60;90.70;96573.63;30001;982;1872;-70
2022/11/05 00:20:39;;;;;;;;;;;;;;;7.60;90.90;96573.63;30001;982;1872;-69
2022/11/05 00:25:17;;;;;;;;;;;;;;;7.58;91.29;96578.50;30001;983;1872;-70
2022/11/05 00:25:55;;;;;;;;;;;;;;;7.56;90.91;96583.38;30001;983;1885;-72
2022/11/05 00:26:28;;;;;;;;;;;;;;;7.55;90.58;96584.47;30001;982;1881;-70
2022/11/05 00:26:59;;;;;;;;;;;;;;;7.55;90.86;96579.06;30001;982;1885;-71
2022/11/05 00:27:36;;;;;;;;;;;;;;;7.54;90.75;96582.84;30001;982;1881;-71
2022/11/05 00:28:07;;;;;;;;;;;;;;;7.55;90.92;96589.84;30001;982;1886;-56
2022/11/05 00:28:43;;;;;;;;;;;;;;;7.56;91.23;96580.69;30001;982;1881;-70
2022/11/05 00:29:14;;;;;;;;;;;;;;;7.57;91.06;96582.28;30001;983;1885;-70
2022/11/05 00:29:45;;;;;;;;;;;;;;;7.58;90.74;96586.59;30001;983;1867;-70
2022/11/05 00:30:18;;;;;;;;;;;;;;;7.57;90.66;96587.69;30001;983;1876;-71
2022/11/05 00:30:49;;;;;;;;;;;;;;;7.55;90.93;96587.16;30001;983;1881;-70
2022/11/05 00:31:20;;;;;;;;;;;;;;;7.55;91.46;96589.84;30001;983;1885;-69
2022/11/05 00:31:51;;;;;;;;;;;;;;;7.53;91.70;96586.63;30001;983;1881;-71
2022/11/05 00:32:23;;;;;;;;;;;;;;;7.51;91.63;96584.22;30001;983;1885;-70
2022/11/05 00:32:59;;;;;;;;;;;;;;;7.50;91.60;96596.09;30001;983;1881;-71
2022/11/05 00:33:31;;;;;;;;;;;;;;;7.50;91.83;96592.59;30001;982;1885;-71
2022/11/05 00:34:02;;;;;;;;;;;;;;;7.50;91.57;96588.00;30001;982;1881;-70
2022/11/05 00:34:32;;;;;;;;;;;;;;;7.50;91.77;96592.59;30001;982;1885;-71
2022/11/05 00:35:05;;;;;;;;;;;;;;;7.49;91.73;96596.38;30001;982;1868;-57
2022/11/05 00:35:36;;;;;;;;;;;;;;;7.47;91.44;96601.25;30001;982;1877;-58
2022/11/05 00:36:08;;;;;;;;;;;;;;;7.46;91.71;96602.34;30001;982;1881;-71
2022/11/05 00:36:39;;;;;;;;;;;;;;;7.47;91.92;96601.25;30001;983;1885;-72
2022/11/05 00:37:11;;;;;;;;;;;;;;;7.46;92.21;96596.94;30001;983;1880;-57
2022/11/05 00:37:43;;;;;;;;;;;;;;;7.46;92.75;96596.94;30001;983;1885;-71
2022/11/05 00:38:17;;;;;;;;;;;;;;;7.46;92.57;96596.94;30001;983;1881;-70
2022/11/05 00:38:48;;;;;;;;;;;;;;;7.46;92.58;96596.94;30001;983;1873;-57
2022/11/05 00:39:19;;;;;;;;;;;;;;;7.46;92.50;96595.03;30001;983;1872;-70
2022/11/05 00:39:50;;;;;;;;;;;;;;;7.48;93.39;96592.06;30001;983;1885;-70
2022/11/05 00:40:21;;;;;;;;;;;;;;;7.45;93.52;96595.31;30001;983;1881;-71
2022/11/05 00:40:51;;;;;;;;;;;;;;;7.45;93.71;96600.72;30001;982;1885;-70
2022/11/05 00:41:22;;;;;;;;;;;;;;;7.44;93.50;96599.09;30001;982;1881;-72
2022/11/05 00:45:10;;;;;;;;;;;;;;;7.47;92.89;96603.94;30001;983;1885;-70
2022/11/05 00:45:42;;;;;;;;;;;;;;;7.48;93.01;96600.16;30001;983;1867;-69
2022/11/05 00:46:13;;;;;;;;;;;;;;;7.47;92.75;96599.34;30001;983;1863;-71
2022/11/05 00:46:44;;;;;;;;;;;;;;;7.48;92.83;96600.97;30001;983;1881;-70
2022/11/05 00:49:42;;;;;;;;;;;;;;;7.48;92.91;96605.56;30001;982;1881;-71
2022/11/05 00:50:13;;;;;;;;;;;;;;;7.48;92.81;96605.56;30001;982;1872;-72
2022/11/05 00:50:45;;;;;;;;;;;;;;;7.46;92.60;96602.34;30001;982;1873;-70
2022/11/05 00:51:19;;;;;;;;;;;;;;;7.45;93.18;96606.94;30001;982;1886;-70
2022/11/05 00:52:54;;;;;;;;;;;;;;;7.45;93.44;96601.53;30001;983;1880;-72
2022/11/05 00:52:56;;;;;;;;;;;;;;;7.45;93.44;96615.03;30001;983;1885;-71
2022/11/05 00:53:27;;;;;;;;;;;;;;;7.45;93.35;96603.41;30001;983;1881;-71
2022/11/05 00:53:58;;;;;;;;;;;;;;;7.45;93.25;96606.94;30001;986;1872;-71
2022/11/05 00:54:29;;;;;;;;;;;;;;;7.46;93.36;96613.12;30001;983;1872;-70
2022/11/05 00:55:00;;;;;;;;;;;;;;;7.47;93.57;96609.34;30001;983;1886;-71
2022/11/05 00:55:39;;;;;;;;;;;;;;;7.47;93.37;96604.75;30001;983;1881;-69
2022/11/05 00:56:13;;;;;;;;;;;;;;;7.49;93.43;96612.56;30001;982;1885;-57
2022/11/05 00:56:44;;;;;;;;;;;;;;;7.49;93.43;96612.56;30001;982;1881;-71
2022/11/05 00:57:15;;;;;;;;;;;;;;;7.48;93.21;96611.78;30001;982;1885;-72
2022/11/05 00:57:46;;;;;;;;;;;;;;;7.49;92.68;96615.28;30001;982;1881;-70
2022/11/05 00:58:18;;;;;;;;;;;;;;;7.48;92.61;96617.16;30001;982;1872;-70
2022/11/05 00:58:49;;;;;;;;;;;;;;;7.46;92.25;96613.12;30001;982;1873;-57
2022/11/05 00:59:20;;;;;;;;;;;;;;;7.48;93.10;96621.75;30001;983;1885;-71
2022/11/05 00:59:54;;;;;;;;;;;;;;;7.47;93.57;96618.25;30001;983;1880;-71
2022/11/05 01:00:27;;;;;;;;;;;;;;;7.48;93.87;96616.34;30001;983;1885;-71
2022/11/05 01:00:58;;;;;;;;;;;;;;;7.47;94.52;96620.16;30001;983;1880;-71
2022/11/05 01:01:29;;;;;;;;;;;;;;;7.45;94.57;96619.63;30001;983;1885;-71
2022/11/05 01:02:00;;;;;;;;;;;;;;;7.44;94.56;96620.69;30001;983;1881;-71
2022/11/05 01:02:31;;;;;;;;;;;;;;;7.46;94.68;96626.63;30001;983;1885;-71
2022/11/05 01:03:03;;;;;;;;;;;;;;;7.44;94.69;96621.50;30001;983;1868;-71
2022/11/05 01:03:35;;;;;;;;;;;;;;;7.44;94.53;96626.91;30001;982;1877;-70
2022/11/05 01:04:06;;;;;;;;;;;;;;;7.44;94.05;96631.50;30001;982;1881;-71
2022/11/05 01:04:37;;;;;;;;;;;;;;;7.43;94.11;96627.19;30001;975;1903;-72
2022/11/05 01:05:08;;;;;;;;;;;;;;;7.43;93.87;96629.88;30001;982;1881;-71
2022/11/05 01:05:43;;;;;;;;;;;;;;;7.43;94.04;96624.47;30001;982;1885;-72
2022/11/05 01:06:15;;;;;;;;;;;;;;;7.43;94.10;96624.47;30001;983;1867;-71
2022/11/05 01:06:46;;;;;;;;;;;;;;;7.43;94.09;96629.88;30001;983;1876;-70
2022/11/05 01:07:17;;;;;;;;;;;;;;;7.41;94.13;96624.75;30001;983;1880;-72
2022/11/05 01:07:47;;;;;;;;;;;;;;;7.40;94.13;96621.25;30001;983;1885;-71
2022/11/05 01:08:19;;;;;;;;;;;;;;;7.40;94.63;96626.66;30001;983;1881;-72
2022/11/05 01:08:50;;;;;;;;;;;;;;;7.42;95.36;96628.28;30001;983;1885;-71
2022/11/05 01:09:21;;;;;;;;;;;;;;;7.42;94.84;96628.28;30001;983;1881;-69
2022/11/05 01:09:52;;;;;;;;;;;;;;;7.42;94.71;96628.28;30001;966;1822;-70
2022/11/05 01:10:23;;;;;;;;;;;;;;;7.40;94.77;96626.66;30001;983;1881;-70
2022/11/05 01:10:57;;;;;;;;;;;;;;;7.42;94.80;96628.28;30001;967;1896;-71
2022/11/05 01:11:34;;;;;;;;;;;;;;;7.42;94.90;96626.38;30001;982;1872;-71
2022/11/05 01:12:05;;;;;;;;;;;;;;;7.42;94.92;96633.66;30001;982;1885;-57
2022/11/05 01:12:36;;;;;;;;;;;;;;;7.41;95.04;96627.47;30001;982;1881;-71
2022/11/05 01:13:10;;;;;;;;;;;;;;;7.40;95.27;96629.34;30001;982;1886;-71
2022/11/05 01:13:41;;;;;;;;;;;;;;;7.40;95.01;96632.06;30001;983;1880;-70
2022/11/05 01:14:14;;;;;;;;;;;;;;;7.39;95.12;96633.13;30001;983;1885;-57
2022/11/05 01:14:45;;;;;;;;;;;;;;;7.40;95.23;96632.06;30001;983;1867;-72
2022/11/05 01:15:18;;;;;;;;;;;;;;;7.40;95.13;96642.84;30001;983;1876;-57
2022/11/05 01:15:50;;;;;;;;;;;;;;;7.39;94.73;96633.13;30001;983;1881;-71
2022/11/05 01:16:21;;;;;;;;;;;;;;;7.40;94.99;96637.44;30001;983;1885;-57
2022/11/05 01:16:52;;;;;;;;;;;;;;;7.39;94.45;96635.84;30001;983;1868;-71
2022/11/05 01:17:23;;;;;;;;;;;;;;;7.38;94.30;96634.22;30001;983;1876;-71
2022/11/05 01:17:54;;;;;;;;;;;;;;;7.38;94.11;96628.00;30001;983;1881;-57
2022/11/05 01:18:25;;;;;;;;;;;;;;;7.39;94.39;96635.03;30001;983;1885;-71
2022/11/05 01:18:56;;;;;;;;;;;;;;;7.38;94.41;96634.22;30001;982;1868;-72
2022/11/05 01:19:28;;;;;;;;;;;;;;;7.38;94.25;96628.81;30001;982;1864;-72
2022/11/05 01:19:59;;;;;;;;;;;;;;;7.39;94.77;96635.84;30001;982;1881;-71
2022/11/05 01:20:33;;;;;;;;;;;;;;;7.39;94.82;96633.13;30001;982;1886;-71
2022/11/05 01:21:14;;;;;;;;;;;;;;;7.38;94.92;96634.22;30001;983;1868;-72
2022/11/05 01:21:45;;;;;;;;;;;;;;;7.39;94.88;96633.13;30001;983;1876;-71
2022/11/05 01:22:16;;;;;;;;;;;;;;;7.41;94.90;96632.84;30001;983;1880;-71
2022/11/05 01:22:48;;;;;;;;;;;;;;;7.43;94.54;96632.59;30001;983;1885;-71
2022/11/05 01:23:19;;;;;;;;;;;;;;;7.43;94.32;96629.88;30001;983;1881;-72
2022/11/05 01:23:50;;;;;;;;;;;;;;;7.45;93.83;96639.31;30001;983;1885;-71
2022/11/05 01:24:21;;;;;;;;;;;;;;;7.47;93.75;96636.34;30001;983;1881;-71
2022/11/05 01:24:52;;;;;;;;;;;;;;;7.47;93.08;96633.63;30001;983;1885;-70
2022/11/05 01:25:24;;;;;;;;;;;;;;;7.45;92.97;96635.81;30001;983;1863;-78
2022/11/05 01:25:57;;;;;;;;;;;;;;;7.46;92.99;96634.72;30001;983;1872;-70
2022/11/05 01:26:28;;;;;;;;;;;;;;;7.45;92.81;96638.50;30001;982;1877;-70
2022/11/05 01:26:59;;;;;;;;;;;;;;;7.44;92.95;96642.28;30001;982;1881;-69
2022/11/05 01:27:33;;;;;;;;;;;;;;;7.44;92.84;96647.69;30001;982;1877;-71
2022/11/05 01:28:07;;;;;;;;;;;;;;;7.42;93.44;96636.38;30001;982;1881;-70
2022/11/05 01:28:38;;;;;;;;;;;;;;;7.42;93.09;96639.06;30001;983;1876;-71
2022/11/05 01:29:09;;;;;;;;;;;;;;;7.42;93.35;96631.78;30001;983;1881;-69
2022/11/05 01:29:41;;;;;;;;;;;;;;;7.43;93.08;96641.50;30001;983;1876;-70
2022/11/05 01:30:15;;;;;;;;;;;;;;;7.42;93.05;96631.78;30001;983;1867;-70
2022/11/05 01:30:53;;;;;;;;;;;;;;;7.43;93.07;96643.38;30001;986;1867;-70
2022/11/05 01:31:24;;;;;;;;;;;;;;;7.44;93.20;96645.00;30001;983;1868;-70
2022/11/05 01:31:57;;;;;;;;;;;;;;;7.44;93.33;96636.91;30001;983;1868;-71
2022/11/05 01:32:28;;;;;;;;;;;;;;;7.46;93.27;96645.53;30001;973;1900;-71
2022/11/05 01:32:58;;;;;;;;;;;;;;;7.46;93.15;96645.53;30001;983;1877;-74
2022/11/05 01:33:30;;;;;;;;;;;;;;;7.47;92.94;96642.53;30001;983;1881;-70
2022/11/05 01:34:01;;;;;;;;;;;;;;;7.49;92.86;96647.66;30001;982;1877;-70
2022/11/05 01:34:33;;;;;;;;;;;;;;;7.51;92.48;96640.09;30001;982;1868;-71
2022/11/05 01:35:05;;;;;;;;;;;;;;;7.51;92.14;96642.81;30001;982;1868;-71
2022/11/05 01:35:35;;;;;;;;;;;;;;;7.49;92.08;96645.78;30001;982;1881;-70
2022/11/05 01:36:07;;;;;;;;;;;;;;;7.48;92.46;96640.66;30001;983;1876;-71
2022/11/05 01:36:38;;;;;;;;;;;;;;;7.47;92.18;96642.53;30001;983;1880;-58
2022/11/05 01:37:09;;;;;;;;;;;;;;;7.47;92.58;96647.13;30001;983;1863;-71
2022/11/05 01:37:41;;;;;;;;;;;;;;;7.47;92.33;96644.44;30001;983;1872;-71
2022/11/05 01:38:12;;;;;;;;;;;;;;;7.45;92.17;96642.03;30001;983;1876;-71
2022/11/05 01:38:44;;;;;;;;;;;;;;;7.44;92.44;96647.69;30001;972;1902;-71
2022/11/05 01:39:16;;;;;;;;;;;;;;;7.44;92.17;96653.09;30001;983;1876;-71
2022/11/05 01:39:47;;;;;;;;;;;;;;;7.43;92.48;96652.28;30001;983;1881;-71
2022/11/05 01:40:20;;;;;;;;;;;;;;;7.43;92.64;96646.87;30001;982;1864;-71
2022/11/05 01:40:51;;;;;;;;;;;;;;;7.49;92.23;96650.38;30001;982;1872;-71
2022/11/05 01:41:22;;;;;;;;;;;;;;;7.50;91.56;96646.59;30001;982;1877;-73
2022/11/05 01:41:53;;;;;;;;;;;;;;;7.50;91.54;96654.69;30001;982;1881;-70
2022/11/05 01:42:25;;;;;;;;;;;;;;;7.47;91.31;96644.44;30001;982;1877;-71
2022/11/05 01:42:56;;;;;;;;;;;;;;;7.48;91.55;96651.44;30001;982;1881;-70
2022/11/05 01:43:43;;;;;;;;;;;;;;;7.48;91.54;96648.75;30001;982;1877;-70
2022/11/05 01:44:32;;;;;;;;;;;;;;;7.49;91.85;96650.38;30001;983;1880;-71
2022/11/05 01:45:11;;;;;;;;;;;;;;;7.49;91.71;96647.66;30001;983;1854;-72
2022/11/05 01:45:43;;;;;;;;;;;;;;;7.48;91.84;96648.75;30001;983;1773;-71
2022/11/05 01:46:16;;;;;;;;;;;;;;;7.47;91.58;96647.13;30001;983;1876;-56
2022/11/05 01:46:47;;;;;;;;;;;;;;;7.46;92.00;96646.34;30001;983;1880;-71
2022/11/05 01:47:47;;;;;;;;;;;;;;;7.45;92.14;96649.31;30001;983;1876;-71
2022/11/05 01:48:24;;;;;;;;;;;;;;;7.44;92.60;96647.69;30001;982;1876;-70
2022/11/05 01:48:56;;;;;;;;;;;;;;;7.45;92.61;96654.72;30001;982;1863;-70
2022/11/05 01:49:36;;;;;;;;;;;;;;;7.44;93.11;96645.00;30001;982;1872;-70
2022/11/05 01:50:26;;;;;;;;;;;;;;;7.44;92.80;96648.50;30001;982;1876;-71
2022/11/05 01:51:00;;;;;;;;;;;;;;;7.45;92.99;96652.00;30001;982;1859;-56
2022/11/05 01:51:32;;;;;;;;;;;;;;;7.44;92.73;96648.50;30001;983;1867;-70
2022/11/05 01:52:03;;;;;;;;;;;;;;;7.46;93.04;96650.91;30001;983;1880;-71
2022/11/05 01:52:35;;;;;;;;;;;;;;;7.48;92.84;96654.16;30001;983;1863;-70
2022/11/05 01:53:13;;;;;;;;;;;;;;;7.48;92.56;96648.75;30001;973;1891;-70
2022/11/05 01:53:46;;;;;;;;;;;;;;;7.47;92.44;96647.13;30001;983;1876;-72
2022/11/05 01:54:20;;;;;;;;;;;;;;;7.46;92.94;96649.03;30001;983;1880;-72
2022/11/05 01:54:50;;;;;;;;;;;;;;;7.46;92.75;96645.53;30001;987;1863;-68
2022/11/05 01:55:24;;;;;;;;;;;;;;;7.47;93.06;96652.53;30001;982;1872;-70
2022/11/05 01:56:08;;;;;;;;;;;;;;;7.48;92.92;96654.97;30001;982;1877;-71
2022/11/05 01:56:42;;;;;;;;;;;;;;;7.49;92.89;96651.19;30001;982;1881;-69
2022/11/05 01:57:13;;;;;;;;;;;;;;;7.51;92.38;96650.91;30001;982;1877;-70
2022/11/05 01:57:44;;;;;;;;;;;;;;;7.50;92.73;96649.28;30001;982;1868;-57
2022/11/05 01:58:21;;;;;;;;;;;;;;;7.49;92.37;96655.78;30001;982;1868;-69
2022/11/05 01:58:55;;;;;;;;;;;;;;;7.48;92.33;96654.97;30001;983;1881;-70
2022/11/05 01:59:33;;;;;;;;;;;;;;;7.47;92.60;96647.94;30001;983;1876;-73
2022/11/05 02:00:05;;;;;;;;;;;;;;;7.47;92.67;96652.53;30001;983;1880;-56
2022/11/05 02:00:36;;;;;;;;;;;;;;;7.46;92.75;96657.13;30001;983;1863;-70
2022/11/05 02:01:07;;;;;;;;;;;;;;;7.45;92.60;96660.91;30001;983;1872;-70
2022/11/05 02:01:38;;;;;;;;;;;;;;;7.44;92.56;96653.09;30001;983;1876;-71
2022/11/05 02:02:10;;;;;;;;;;;;;;;7.45;92.84;96654.72;30001;983;1881;-70
2022/11/05 02:02:41;;;;;;;;;;;;;;;7.44;92.62;96655.78;30001;983;1876;-72
2022/11/05 02:03:14;;;;;;;;;;;;;;;7.45;93.06;96654.72;30001;982;1881;-57
2022/11/05 02:03:47;;;;;;;;;;;;;;;7.45;93.16;96652.00;30001;982;1877;-58
2022/11/05 02:04:39;;;;;;;;;;;;;;;7.49;92.73;96658.47;30001;982;1868;-70
2022/11/05 02:05:11;;;;;;;;;;;;;;;7.51;92.15;96656.28;30001;982;1868;-70
2022/11/05 02:05:44;;;;;;;;;;;;;;;7.50;91.79;96651.97;30001;983;1880;-71
2022/11/05 02:06:16;;;;;;;;;;;;;;;7.48;91.73;96648.75;30001;983;1876;-70
2022/11/05 02:06:47;;;;;;;;;;;;;;;7.49;92.04;96666.56;30001;983;1880;-70
2022/11/05 02:07:21;;;;;;;;;;;;;;;7.50;91.91;96657.38;30001;983;1876;-70
2022/11/05 02:07:52;;;;;;;;;;;;;;;7.47;91.98;96656.03;30001;983;1867;-56
2022/11/05 02:08:36;;;;;;;;;;;;;;;7.47;91.98;96657.94;30001;983;1868;-71
2022/11/05 02:09:11;;;;;;;;;;;;;;;7.50;91.93;96665.47;30001;983;1881;-58
2022/11/05 02:10:09;;;;;;;;;;;;;;;7.50;91.53;96657.38;30001;983;1877;-68
2022/11/05 02:10:42;;;;;;;;;;;;;;;7.55;91.07;96660.88;30001;982;1877;-57
2022/11/05 02:11:18;;;;;;;;;;;;;;;7.55;90.66;96658.16;30001;982;1877;-71
2022/11/05 02:11:50;;;;;;;;;;;;;;;7.56;90.83;96661.66;30001;982;1881;-69
2022/11/05 02:12:21;;;;;;;;;;;;;;;7.58;90.86;96659.50;30001;982;1863;-67
2022/11/05 02:12:53;;;;;;;;;;;;;;;7.56;90.50;96661.66;30001;982;1859;-72
2022/11/05 02:13:24;;;;;;;;;;;;;;;7.53;90.51;96657.63;30001;983;1876;-71
2022/11/05 02:13:56;;;;;;;;;;;;;;;7.53;90.68;96663.03;30001;983;1880;-57
2022/11/05 02:14:27;;;;;;;;;;;;;;;7.52;90.63;96660.63;30001;983;1876;-70
2022/11/05 02:14:58;;;;;;;;;;;;;;;7.52;91.22;96666.00;30002;811;1013;-72
2022/11/05 02:15:35;;;;;;;;;;;;;;;7.51;90.95;96659.00;30001;983;1876;-68
2022/11/05 02:16:15;;;;;;;;;;;;;;;7.50;91.36;96663.59;30001;983;1880;-70
2022/11/05 02:17:07;;;;;;;;;;;;;;;7.50;91.26;96662.78;30001;983;1863;-70
2022/11/05 02:17:54;;;;;;;;;;;;;;;7.50;91.79;96662.78;30001;983;1872;-72
2022/11/05 02:18:44;;;;;;;;;;;;;;;7.48;91.67;96659.56;30001;982;1876;-70
2022/11/05 02:19:34;;;;;;;;;;;;;;;7.48;92.17;96659.56;30002;982;1877;-71
2022/11/05 02:20:17;;;;;;;;;;;;;;;7.46;92.41;96659.81;30002;982;1868;-71
2022/11/05 02:21:16;;;;;;;;;;;;;;;7.47;92.67;96657.94;30001;983;1880;-70
2022/11/05 02:22:10;;;;;;;;;;;;;;;7.47;92.92;96669.53;30002;983;1863;-71
2022/11/05 02:22:59;;;;;;;;;;;;;;;7.47;92.80;96660.63;30002;983;1867;-71
2022/11/05 02:23:59;;;;;;;;;;;;;;;7.47;92.69;96657.94;30002;983;1868;-71
2022/11/05 02:24:50;;;;;;;;;;;;;;;7.47;92.90;96666.03;30002;983;1876;-57
2022/11/05 02:25:48;;;;;;;;;;;;;;;7.50;92.70;96662.78;30002;983;1872;-71
2022/11/05 02:26:47;;;;;;;;;;;;;;;7.49;92.44;96655.78;30002;982;1876;-69
2022/11/05 02:27:25;;;;;;;;;;;;;;;7.51;92.54;96664.41;30002;982;1859;-56
2022/11/05 02:28:12;;;;;;;;;;;;;;;7.52;92.55;96664.13;30002;982;1859;-70
2022/11/05 02:28:56;;;;;;;;;;;;;;;7.50;92.42;96663.59;30002;983;1876;-71
2022/11/05 02:29:46;;;;;;;;;;;;;;;7.50;92.40;96666.28;30002;983;1880;-70
2022/11/05 02:30:36;;;;;;;;;;;;;;;7.48;91.99;96670.34;30002;983;1876;-57
2022/11/05 02:31:30;;;;;;;;;;;;;;;7.48;92.43;96668.47;30002;983;1881;-70
2022/11/05 02:32:42;;;;;;;;;;;;;;;7.49;92.12;96669.28;30002;983;1872;-57
2022/11/05 02:33:28;;;;;;;;;;;;;;;7.48;92.49;96664.94;30002;982;1787;-70
2022/11/05 02:34:08;;;;;;;;;;;;;;;7.47;92.76;96668.72;30002;982;1855;-70
2022/11/05 02:34:59;;;;;;;;;;;;;;;7.47;92.47;96668.72;30002;982;1881;-70
2022/11/05 02:35:40;;;;;;;;;;;;;;;7.46;92.43;96672.53;30002;982;1872;-71
2022/11/05 02:36:23;;;;;;;;;;;;;;;7.47;92.74;96668.72;30002;983;1880;-72
2022/11/05 02:37:12;;;;;;;;;;;;;;;7.46;92.58;96667.94;30002;983;1876;-69
2022/11/05 02:37:45;;;;;;;;;;;;;;;7.47;92.83;96668.72;30002;983;1872;-69
2022/11/05 02:38:36;;;;;;;;;;;;;;;7.49;92.65;96666.56;30002;983;1876;-70
2022/11/05 02:39:45;;;;;;;;;;;;;;;7.49;92.73;96663.88;30002;983;1863;-70
2022/11/05 02:40:27;;;;;;;;;;;;;;;7.49;92.28;96663.88;30002;982;1863;-70
2022/11/05 02:41:12;;;;;;;;;;;;;;;7.48;92.52;96664.94;30002;982;1881;-57
2022/11/05 02:41:51;;;;;;;;;;;;;;;7.48;92.26;96670.34;30002;982;1877;-57
2022/11/05 02:42:33;;;;;;;;;;;;;;;7.49;92.47;96671.97;30002;982;1881;-57
2022/11/05 02:43:30;;;;;;;;;;;;;;;7.48;92.37;96671.16;30002;982;1877;-70
2022/11/05 02:44:13;;;;;;;;;;;;;;;7.49;92.24;96669.28;30002;983;1863;-72
2022/11/05 02:45:05;;;;;;;;;;;;;;;7.47;92.16;96668.72;30002;983;1867;-69
2022/11/05 02:46:04;;;;;;;;;;;;;;;7.47;92.95;96668.72;30002;983;1881;-71
2022/11/05 02:46:45;;;;;;;;;;;;;;;7.47;93.00;96674.12;30002;983;1872;-70
2022/11/05 02:47:24;;;;;;;;;;;;;;;7.46;93.35;96672.53;30002;983;1881;-70
2022/11/05 02:48:17;;;;;;;;;;;;;;;7.45;93.43;96671.72;30002;982;1877;-70
2022/11/05 02:49:02;;;;;;;;;;;;;;;7.45;93.43;96670.91;30002;982;1863;-70
2022/11/05 02:49:47;;;;;;;;;;;;;;;7.43;94.02;96673.06;30002;982;1868;-71
2022/11/05 02:50:50;;;;;;;;;;;;;;;7.43;94.29;96678.47;30002;982;1881;-69
2022/11/05 02:51:38;;;;;;;;;;;;;;;7.42;94.28;96671.47;30002;983;1871;-69
2022/11/05 02:52:20;;;;;;;;;;;;;;;7.44;94.19;96669.28;30002;983;1880;-69
2022/11/05 02:52:58;;;;;;;;;;;;;;;7.44;93.81;96669.28;30002;983;1876;-71
2022/11/05 02:53:39;;;;;;;;;;;;;;;7.46;93.59;96677.91;30002;983;1881;-69
2022/11/05 02:54:23;;;;;;;;;;;;;;;7.43;93.26;96668.47;30002;983;1863;-69
2022/11/05 02:55:04;;;;;;;;;;;;;;;7.45;93.18;96668.19;30002;986;1864;-71
2022/11/05 02:55:44;;;;;;;;;;;;;;;7.43;93.05;96671.19;30002;982;1881;-70
2022/11/05 02:56:35;;;;;;;;;;;;;;;7.43;92.95;96673.06;30002;982;1876;-69
2022/11/05 02:57:05;;;;;;;;;;;;;;;7.43;93.19;96671.19;30002;982;1877;-57
2022/11/05 02:57:37;;;;;;;;;;;;;;;7.44;93.18;96672.00;30002;982;1877;-71
2022/11/05 02:58:08;;;;;;;;;;;;;;;7.43;93.29;96673.06;30002;982;1881;-70
2022/11/05 02:58:39;;;;;;;;;;;;;;;7.44;93.51;96680.09;30002;983;1876;-70
2022/11/05 02:59:09;;;;;;;;;;;;;;;7.43;93.74;96673.06;30002;983;1880;-71
2022/11/05 02:59:40;;;;;;;;;;;;;;;7.44;93.59;96672.78;30002;983;1863;-57
2022/11/05 03:00:29;;;;;;;;;;;;;;;7.43;93.34;96673.06;30002;983;1872;-69
2022/11/05 03:01:05;;;;;;;;;;;;;;;7.42;93.31;96666.88;30002;983;1868;-57
2022/11/05 03:01:37;;;;;;;;;;;;;;;7.44;93.34;96674.69;30002;983;1868;-70
2022/11/05 03:02:09;;;;;;;;;;;;;;;7.43;93.13;96673.06;30002;983;1868;-58
2022/11/05 03:02:40;;;;;;;;;;;;;;;7.42;93.16;96666.88;30002;982;1881;-70
2022/11/05 03:03:16;;;;;;;;;;;;;;;7.42;93.33;96666.06;30002;982;1876;-69
2022/11/05 03:03:50;;;;;;;;;;;;;;;7.43;93.21;96673.06;30002;982;1881;-69
2022/11/05 03:04:21;;;;;;;;;;;;;;;7.44;93.34;96680.09;30002;982;1877;-59
2022/11/05 03:04:55;;;;;;;;;;;;;;;7.44;93.23;96672.78;30002;982;1881;-71
2022/11/05 03:05:35;;;;;;;;;;;;;;;7.45;93.23;96665.50;30002;982;1877;-71
2022/11/05 03:06:32;;;;;;;;;;;;;;;7.44;93.03;96667.41;30002;983;1881;-70
2022/11/05 03:07:13;;;;;;;;;;;;;;;7.43;92.82;96667.69;30002;983;1859;-69
2022/11/05 03:07:51;;;;;;;;;;;;;;;7.45;93.01;96670.91;30002;983;1872;-69
2022/11/05 03:08:44;;;;;;;;;;;;;;;7.45;92.79;96668.19;30002;983;1876;-69
2022/11/05 03:09:30;;;;;;;;;;;;;;;7.45;92.89;96670.91;30002;983;1876;-57
2022/11/05 03:10:24;;;;;;;;;;;;;;;7.45;93.13;96665.50;30002;982;1876;-70
2022/11/05 03:11:03;;;;;;;;;;;;;;;7.44;92.86;96672.00;30002;964;1895;-71
2022/11/05 03:11:40;;;;;;;;;;;;;;;7.44;92.96;96674.69;30001;982;1863;-70
2022/11/05 03:12:33;;;;;;;;;;;;;;;7.45;93.09;96673.59;30002;982;1872;-57
2022/11/05 03:13:16;;;;;;;;;;;;;;;7.46;93.14;96675.22;30001;983;1876;-71
2022/11/05 03:14:06;;;;;;;;;;;;;;;7.46;93.11;96677.91;30001;983;1880;-68
2022/11/05 03:14:56;;;;;;;;;;;;;;;7.46;93.16;96677.91;30001;983;1863;-67
2022/11/05 03:16:02;;;;;;;;;;;;;;;7.49;93.03;96680.06;30002;983;1867;-71
2022/11/05 03:16:38;;;;;;;;;;;;;;;7.48;92.68;96681.16;30001;983;1876;-70
2022/11/05 03:17:19;;;;;;;;;;;;;;;7.47;92.56;96679.53;30001;983;1872;-71
2022/11/05 03:18:12;;;;;;;;;;;;;;;7.47;92.67;96680.34;30001;982;1872;-72
2022/11/05 03:19:18;;;;;;;;;;;;;;;7.46;92.76;96677.91;30001;982;1881;-70
2022/11/05 03:19:57;;;;;;;;;;;;;;;7.47;93.10;96687.63;30001;982;1877;-68
2022/11/05 03:20:42;;;;;;;;;;;;;;;7.47;92.79;96680.34;30001;983;1885;-70
2022/11/05 03:21:20;;;;;;;;;;;;;;;7.47;92.75;96685.75;30001;983;1881;-72
2022/11/05 03:22:01;;;;;;;;;;;;;;;7.46;92.50;96686.03;30001;983;1885;-69
2022/11/05 03:22:36;;;;;;;;;;;;;;;7.43;92.77;96683.88;30001;983;1867;-71
2022/11/05 03:23:15;;;;;;;;;;;;;;;7.42;92.78;96687.66;30001;983;1876;-71
2022/11/05 03:23:57;;;;;;;;;;;;;;;7.41;93.18;96684.16;30001;976;1896;-71
2022/11/05 03:24:31;;;;;;;;;;;;;;;7.39;93.40;96689.81;30001;983;1885;-72
2022/11/05 03:25:05;;;;;;;;;;;;;;;7.40;93.55;96687.94;30001;983;1881;-72
2022/11/05 03:25:40;;;;;;;;;;;;;;;7.39;93.62;96689.00;30001;982;1885;-56
2022/11/05 03:26:30;;;;;;;;;;;;;;;7.39;93.70;96695.22;30001;982;1881;-72
2022/11/05 03:27:27;;;;;;;;;;;;;;;7.38;94.00;96693.59;30001;982;1881;-71
2022/11/05 03:28:02;;;;;;;;;;;;;;;7.37;93.99;96697.38;30001;983;1863;-71
2022/11/05 03:28:34;;;;;;;;;;;;;;;7.37;94.12;96697.38;30001;983;1876;-70
2022/11/05 03:29:08;;;;;;;;;;;;;;;7.38;94.17;96695.50;30001;983;1880;-73
2022/11/05 03:29:44;;;;;;;;;;;;;;;7.37;94.19;96697.38;30001;983;1885;-71
2022/11/05 03:30:17;;;;;;;;;;;;;;;7.37;94.05;96700.09;30001;983;1881;-71
2022/11/05 03:30:50;;;;;;;;;;;;;;;7.37;94.12;96702.78;30001;983;1885;-71
2022/11/05 03:31:23;;;;;;;;;;;;;;;7.37;94.41;96701.97;30001;983;1881;-71
2022/11/05 03:31:56;;;;;;;;;;;;;;;7.35;94.12;96699.56;30001;983;1885;-74
2022/11/05 03:32:29;;;;;;;;;;;;;;;7.34;94.46;96700.63;30001;983;1881;-74
2022/11/05 03:34:11;;;;;;;;;;;;;;;7.31;94.88;96700.37;89987;930;17000;-57
2022/11/05 03:34:45;;;;;;;;;;;;;;;7.30;95.11;96696.88;30001;982;1869;-76
2022/11/05 03:35:22;;;;;;;;;;;;;;;7.31;95.01;96701.19;30001;983;1867;-75
2022/11/05 03:35:55;;;;;;;;;;;;;;;7.30;96.04;96694.16;30001;983;1880;-74
2022/11/05 03:36:40;;;;;;;;;;;;;;;7.28;95.85;96703.63;30001;983;1876;-75
2022/11/05 03:37:11;;;;;;;;;;;;;;;7.28;96.55;96706.31;30001;983;1881;-76
2022/11/05 03:37:45;;;;;;;;;;;;;;;7.26;96.35;96706.63;30001;983;1876;-73
2022/11/05 03:38:19;;;;;;;;;;;;;;;7.26;96.74;96706.63;30001;983;1868;-75
2022/11/05 03:38:52;;;;;;;;;;;;;;;7.25;96.77;96705.00;30001;983;1868;-75
2022/11/05 03:39:31;;;;;;;;;;;;;;;7.26;97.04;96705.81;30001;982;1881;-74
2022/11/05 03:40:05;;;;;;;;;;;;;;;7.25;97.23;96709.59;30001;982;1877;-74
2022/11/05 03:40:37;;;;;;;;;;;;;;;7.24;97.40;96705.28;30001;982;1881;-71
2022/11/05 03:41:10;;;;;;;;;;;;;;;7.24;97.25;96705.28;30001;982;1837;-75
2022/11/05 03:41:45;;;;;;;;;;;;;;;7.21;97.66;96706.66;30001;982;1881;-71
2022/11/05 03:42:17;;;;;;;;;;;;;;;7.22;97.47;96704.75;30001;971;1897;-70
2022/11/05 03:42:51;;;;;;;;;;;;;;;7.22;97.62;96702.88;30001;983;1880;-74
2022/11/05 03:43:24;;;;;;;;;;;;;;;7.22;97.50;96704.75;30001;983;1863;-75
2022/11/05 03:43:57;;;;;;;;;;;;;;;7.22;97.47;96710.97;30001;978;1877;-75